createdAt,value
2019-03-12T00:02:20.278Z,45.34
2019-03-12T00:04:49.754Z,45.12
2019-03-12T00:07:19.046Z,44.49
2019-03-12T00:09:48.886Z,44.89
2019-03-12T00:12:18.902Z,44.67
2019-03-12T00:14:48.638Z,44.53
2019-03-12T00:17:17.725Z,45.07
2019-03-12T00:19:48.328Z,44.52
2019-03-12T00:22:18.495Z,44.09
2019-03-12T00:24:48.472Z,45.29
2019-03-12T00:27:18.633Z,46.23
2019-03-12T00:29:47.491Z,46.23
2019-03-12T00:32:17.162Z,45.12
2019-03-12T00:34:47.019Z,45.42
2019-03-12T00:37:16.995Z,46.48
2019-03-12T00:39:46.731Z,46.45
2019-03-12T00:42:16.126Z,46.21
2019-03-12T00:44:45.837Z,48.19
2019-03-12T00:47:15.663Z,47.33
2019-03-12T00:49:44.691Z,47.72
2019-03-12T00:52:14.846Z,47.86
2019-03-12T00:54:44.634Z,48.57
2019-03-12T00:57:13.430Z,47.90
2019-03-12T00:59:42.874Z,47.78
2019-03-12T01:02:12.624Z,48.51
2019-03-12T01:04:41.473Z,47.99
2019-03-12T01:07:12.326Z,47.59
2019-03-12T01:09:42.316Z,47.59
2019-03-12T01:12:12.526Z,46.85
2019-03-12T01:14:42.455Z,47.30
2019-03-12T01:20:04.690Z,48.69
2019-03-12T01:22:34.339Z,48.83
2019-03-12T01:25:04.936Z,48.67
2019-03-12T01:27:34.594Z,48.65
2019-03-12T01:30:05.799Z,49.32
2019-03-12T01:32:35.562Z,49.32
2019-03-12T01:35:06.577Z,49.05
2019-03-12T01:37:36.780Z,50.21
2019-03-12T01:40:09.497Z,50.21
2019-03-12T01:42:40.310Z,49.89
2019-03-12T01:45:13.339Z,49.89
2019-03-12T01:47:43.587Z,49.63
2019-03-12T01:50:13.149Z,50.15
2019-03-12T01:52:44.148Z,49.58
2019-03-12T01:55:16.609Z,49.23
2019-03-12T01:57:46.478Z,49.17
2019-03-12T02:00:17.024Z,49.32
2019-03-12T02:02:48.789Z,49.32
2019-03-12T02:05:20.323Z,48.65
2019-03-12T02:07:50.973Z,49.17
2019-03-12T02:10:21.543Z,49.17
2019-03-12T02:12:51.845Z,49.20
2019-03-12T02:15:22.546Z,49.20
2019-03-12T02:17:52.907Z,49.92
2019-03-12T02:20:24.174Z,49.92
2019-03-12T02:22:54.178Z,50.87
2019-03-12T02:25:24.147Z,50.58
2019-03-12T02:27:54.514Z,51.28
2019-03-12T02:30:24.426Z,49.92
2019-03-12T02:32:54.355Z,49.92
2019-03-12T02:35:24.906Z,49.04
2019-03-12T02:37:54.659Z,49.04
2019-03-12T02:40:24.537Z,49.19
2019-03-12T02:42:53.843Z,50.30
2019-03-12T02:45:25.134Z,48.73
2019-03-12T02:47:55.738Z,49.78
2019-03-12T02:50:26.107Z,50.53
2019-03-12T02:52:56.349Z,49.50
2019-03-12T02:55:26.564Z,50.69
2019-03-12T02:57:55.901Z,50.31
2019-03-12T03:00:25.961Z,49.58
2019-03-12T03:02:55.884Z,50.33
2019-03-12T03:05:25.750Z,51.07
2019-03-12T03:08:01.638Z,50.47
2019-03-12T03:10:31.310Z,51.86
2019-03-12T03:13:01.585Z,50.24
2019-03-12T03:15:42.550Z,51.77
2019-03-12T03:18:12.685Z,53.77
2019-03-12T03:20:42.860Z,53.77
2019-03-12T03:23:14.119Z,52.67
2019-03-12T03:25:44.013Z,52.77
2019-03-12T03:28:15.968Z,52.18
2019-03-12T03:30:45.901Z,53.66
2019-03-12T03:33:15.871Z,53.42
2019-03-12T03:35:45.831Z,54.42
2019-03-12T03:38:15.576Z,54.63
2019-03-12T03:40:44.556Z,54.75
2019-03-12T03:43:15.319Z,54.31
2019-03-12T03:45:45.116Z,54.95
2019-03-12T03:48:14.938Z,53.90
2019-03-12T03:50:45.080Z,54.08
2019-03-12T03:53:15.069Z,54.73
2019-03-12T03:55:45.528Z,53.49
2019-03-12T03:58:14.878Z,53.49
2019-03-12T04:00:44.647Z,52.13
2019-03-12T04:03:14.306Z,53.63
2019-03-12T04:05:44.756Z,53.95
2019-03-12T04:08:14.682Z,53.50
2019-03-12T04:10:44.491Z,52.98
2019-03-12T04:13:14.485Z,52.45
2019-03-12T04:15:44.319Z,52.45
2019-03-12T04:18:14.169Z,55.54
2019-03-12T04:20:44.058Z,53.72
2019-03-12T04:23:16.011Z,52.76
2019-03-12T04:25:44.656Z,55.19
2019-03-12T04:28:13.621Z,56.21
2019-03-12T04:30:42.588Z,56.72
2019-03-12T04:34:27.314Z,57.07
2019-03-12T04:36:57.135Z,56.75
2019-03-12T04:39:27.002Z,56.38
2019-03-12T04:41:56.565Z,56.61
2019-03-12T04:44:26.017Z,57.57
2019-03-12T04:46:56.146Z,57.57
2019-03-12T04:49:26.303Z,58.58
2019-03-12T04:51:56.137Z,59.33
2019-03-12T04:54:25.801Z,59.36
2019-03-12T04:56:55.544Z,59.50
2019-03-12T04:59:24.787Z,58.94
2019-03-12T05:01:54.873Z,57.52
2019-03-12T05:04:24.631Z,59.77
2019-03-12T05:06:55.702Z,60.28
2019-03-12T05:09:26.808Z,61.25
2019-03-12T05:11:57.592Z,62.17
2019-03-12T05:14:34.699Z,62.80
2019-03-12T05:17:35.102Z,63.84
2019-03-12T05:20:10.978Z,63.46
2019-03-12T05:22:42.531Z,62.60
2019-03-12T05:25:14.040Z,63.31
2019-03-12T05:27:47.388Z,63.56
2019-03-12T05:30:20.520Z,64.11
2019-03-12T05:32:51.024Z,64.12
2019-03-12T05:35:22.065Z,62.87
2019-03-12T05:37:53.152Z,62.57
2019-03-12T05:40:24.877Z,62.66
2019-03-12T05:42:55.046Z,62.58
2019-03-12T05:45:26.318Z,62.59
2019-03-12T05:47:58.813Z,63.67
2019-03-12T05:50:30.862Z,64.56
2019-03-12T05:53:15.591Z,64.56
2019-03-12T05:55:47.475Z,63.10
2019-03-12T05:58:19.846Z,61.60
2019-03-12T06:00:51.718Z,62.54
2019-03-12T06:03:22.327Z,61.04
2019-03-12T06:05:53.534Z,61.79
2019-03-12T06:08:24.116Z,61.79
2019-03-12T06:10:55.320Z,62.22
2019-03-12T06:13:27.531Z,62.81
2019-03-12T06:16:00.162Z,62.81
2019-03-12T06:18:31.051Z,60.90
2019-03-12T06:21:02.454Z,62.27
2019-03-12T06:23:33.340Z,61.26
2019-03-12T06:26:06.344Z,61.08
2019-03-12T06:28:38.449Z,61.08
2019-03-12T06:31:27.903Z,60.93
2019-03-12T06:34:05.340Z,60.93
2019-03-12T06:36:49.643Z,60.27
2019-03-12T06:39:44.612Z,58.58
2019-03-12T06:42:36.785Z,57.63
2019-03-12T06:45:21.402Z,54.59
2019-03-12T06:48:13.980Z,54.28
2019-03-12T06:51:01.895Z,54.23
2019-03-12T06:53:50.043Z,54.45
2019-03-12T06:56:48.858Z,53.47
2019-03-12T06:59:41.412Z,53.14
2019-03-12T07:02:40.508Z,52.97
2019-03-12T07:05:44.823Z,52.87
2019-03-12T07:08:32.788Z,52.97
2019-03-12T07:11:22.544Z,53.11
2019-03-12T07:14:04.218Z,52.71
2019-03-12T07:17:10.631Z,53.31
2019-03-12T07:20:00.552Z,53.31
2019-03-12T07:22:46.498Z,52.72
2019-03-12T07:25:35.089Z,52.98
2019-03-12T07:28:13.541Z,51.97
2019-03-12T07:31:01.665Z,49.83
2019-03-12T07:33:51.051Z,49.83
2019-03-12T07:36:40.425Z,51.50
2019-03-12T07:39:28.594Z,49.33
2019-03-12T07:42:20.681Z,48.07
2019-03-12T07:45:08.458Z,48.54
2019-03-12T07:47:55.059Z,48.95
2019-03-12T07:50:45.862Z,48.87
2019-03-12T07:53:35.498Z,47.25
2019-03-12T07:56:13.939Z,45.14
2019-03-12T07:59:18.556Z,39.45
2019-03-12T08:02:07.372Z,26.45
2019-03-12T08:05:01.088Z,26.45
2019-03-12T08:07:50.512Z,21.71
2019-03-12T08:10:34.425Z,18.06
2019-03-12T08:13:23.897Z,19.88
2019-03-12T08:16:23.496Z,19.88
2019-03-12T08:19:02.043Z,25.74
2019-03-12T08:21:59.071Z,25.74
2019-03-12T08:24:36.537Z,25.85
2019-03-12T08:27:40.261Z,24.99
2019-03-12T08:30:28.724Z,23.38
2019-03-12T08:33:18.109Z,20.98
2019-03-12T08:35:54.008Z,19.95
2019-03-12T08:38:30.452Z,19.12
2019-03-12T08:41:15.141Z,18.05
2019-03-12T08:44:00.330Z,18.05
2019-03-12T08:46:49.509Z,16.95
2019-03-12T08:49:37.923Z,15.45
2019-03-12T08:52:25.098Z,14.74
2019-03-12T08:55:20.945Z,15.42
2019-03-12T08:58:13.990Z,16.87
2019-03-12T09:01:02.127Z,16.50
2019-03-12T09:04:00.710Z,17.36
2019-03-12T09:06:41.083Z,17.75
2019-03-12T09:09:39.868Z,17.84
2019-03-12T09:12:38.551Z,17.49
2019-03-12T09:15:27.743Z,17.20
2019-03-12T09:18:35.705Z,17.20
2019-03-12T09:21:43.516Z,18.32
2019-03-12T09:24:35.040Z,17.27
2019-03-12T09:27:38.134Z,16.15
2019-03-12T09:30:39.848Z,17.61
2019-03-12T09:33:13.656Z,17.11
2019-03-12T09:36:21.682Z,15.43
2019-03-12T09:39:05.488Z,15.59
2019-03-12T09:41:59.824Z,15.22
2019-03-12T09:44:46.519Z,16.68
2019-03-12T09:47:38.631Z,15.79
2019-03-12T09:50:28.778Z,15.79
2019-03-12T09:53:14.664Z,16.60
2019-03-12T09:56:10.615Z,14.75
2019-03-12T09:58:57.950Z,15.66
2019-03-12T10:02:02.035Z,16.78
2019-03-12T10:05:09.813Z,15.92
2019-03-12T10:08:08.778Z,15.60
2019-03-12T10:10:53.757Z,14.77
2019-03-12T10:13:41.840Z,14.21
2019-03-12T10:16:43.811Z,14.05
2019-03-12T10:19:31.984Z,14.58
2019-03-12T10:22:25.779Z,16.41
2019-03-12T10:25:28.545Z,15.55
2019-03-12T10:28:13.950Z,12.38
2019-03-12T10:30:53.545Z,12.38
2019-03-12T10:33:49.310Z,11.01
2019-03-12T10:36:38.537Z,11.01
2019-03-12T10:40:15.712Z,10.71
2019-03-12T10:43:03.646Z,10.21
2019-03-12T10:45:52.520Z,10.18
2019-03-12T10:48:22.448Z,11.72
2019-03-12T10:50:53.325Z,10.74
2019-03-12T10:53:23.603Z,10.74
2019-03-12T10:55:53.010Z,13.21
2019-03-12T10:58:23.351Z,13.21
2019-03-12T11:00:53.092Z,12.12
2019-03-12T11:03:23.445Z,11.31
2019-03-12T11:05:53.518Z,13.81
2019-03-12T11:08:22.884Z,14.45
2019-03-12T11:10:53.171Z,14.45
2019-03-12T11:13:23.156Z,13.24
2019-03-12T11:15:54.657Z,12.95
2019-03-12T11:18:25.038Z,12.31
2019-03-12T11:20:55.182Z,12.02
2019-03-12T11:23:25.505Z,11.70
2019-03-12T11:25:55.919Z,12.24
2019-03-12T11:28:26.891Z,12.24
2019-03-12T11:30:57.108Z,12.32
2019-03-12T11:33:26.821Z,12.92
2019-03-12T11:35:56.695Z,12.11
2019-03-12T11:38:27.318Z,13.45
2019-03-12T11:40:57.352Z,14.34
2019-03-12T11:43:27.387Z,13.69
2019-03-12T11:45:57.884Z,13.28
2019-03-12T11:48:27.607Z,12.57
2019-03-12T11:50:56.581Z,12.80
2019-03-12T11:53:26.778Z,12.29
2019-03-12T11:55:56.743Z,11.86
2019-03-12T11:58:27.071Z,13.42
2019-03-12T12:01:02.571Z,14.02
2019-03-12T12:03:33.155Z,14.20
2019-03-12T12:06:04.395Z,13.70
2019-03-12T12:08:34.848Z,14.15
2019-03-12T12:11:05.137Z,14.60
2019-03-12T12:13:37.850Z,13.95
2019-03-12T12:16:07.852Z,13.29
2019-03-12T12:18:38.221Z,14.83
2019-03-12T12:21:08.035Z,15.25
2019-03-12T12:23:37.511Z,14.97
2019-03-12T12:26:07.484Z,14.69
2019-03-12T12:28:37.668Z,14.44
2019-03-12T12:31:08.951Z,14.44
2019-03-12T12:33:39.515Z,14.49
2019-03-12T12:36:09.798Z,13.94
2019-03-12T12:38:39.825Z,13.94
2019-03-12T12:41:09.944Z,13.22
2019-03-12T12:43:39.572Z,14.39
2019-03-12T12:46:09.439Z,15.75
2019-03-12T12:48:41.141Z,14.25
2019-03-12T12:51:11.994Z,14.30
2019-03-12T12:53:42.873Z,14.33
2019-03-12T12:56:13.428Z,12.64
2019-03-12T12:58:43.167Z,13.71
2019-03-12T13:01:18.147Z,13.71
2019-03-12T13:03:48.620Z,13.60
2019-03-12T13:06:19.775Z,13.60
2019-03-12T13:08:50.623Z,13.85
2019-03-12T13:11:21.314Z,14.10
2019-03-12T13:13:51.448Z,15.49
2019-03-12T13:16:25.411Z,15.65
2019-03-12T13:18:53.906Z,16.99
2019-03-12T13:21:24.312Z,16.32
2019-03-12T13:23:55.321Z,15.67
2019-03-12T13:26:25.598Z,15.38
2019-03-12T13:28:56.887Z,15.70
2019-03-12T13:31:26.829Z,15.38
2019-03-12T13:33:59.666Z,16.18
2019-03-12T13:36:30.358Z,16.05
2019-03-12T13:39:00.599Z,17.85
2019-03-12T13:41:29.667Z,17.85
2019-03-12T13:43:59.550Z,17.89
2019-03-12T13:46:29.013Z,17.91
2019-03-12T13:48:58.964Z,18.41
2019-03-12T13:51:29.501Z,19.17
2019-03-12T13:53:59.501Z,20.36
2019-03-12T13:56:28.303Z,20.36
2019-03-12T13:58:58.430Z,19.66
2019-03-12T14:01:28.736Z,19.66
2019-03-12T14:04:10.070Z,19.92
2019-03-12T14:06:30.909Z,19.91
2019-03-12T14:09:00.983Z,19.66
2019-03-12T14:11:32.902Z,19.16
2019-03-12T14:14:02.644Z,19.29
2019-03-12T14:16:32.945Z,19.02
2019-03-12T14:19:03.503Z,19.77
2019-03-12T14:21:42.707Z,19.80
2019-03-12T14:24:14.057Z,19.06
2019-03-12T14:26:45.529Z,20.05
2019-03-12T14:29:16.061Z,19.97
2019-03-12T14:31:47.700Z,20.21
2019-03-12T14:34:20.533Z,20.45
2019-03-12T14:36:51.690Z,20.25
2019-03-12T14:39:23.576Z,20.65
2019-03-12T14:41:54.319Z,20.21
2019-03-12T14:44:25.410Z,19.53
2019-03-12T14:46:56.496Z,20.07
2019-03-12T14:49:27.439Z,19.19
2019-03-12T14:52:28.465Z,19.33
2019-03-12T14:54:58.666Z,20.12
2019-03-12T14:57:28.736Z,20.12
2019-03-12T15:00:00.484Z,19.93
2019-03-12T15:02:31.617Z,19.41
2019-03-12T15:05:01.949Z,19.74
2019-03-12T15:07:32.515Z,20.27
2019-03-12T15:12:03.526Z,20.24
2019-03-12T15:14:33.478Z,20.54
2019-03-12T15:17:02.557Z,20.96
2019-03-12T15:19:31.709Z,20.49
2019-03-12T15:22:02.547Z,20.09
2019-03-12T15:24:36.024Z,20.04
2019-03-12T15:27:05.919Z,20.46
2019-03-12T15:29:40.000Z,20.20
2019-03-12T15:32:13.305Z,20.83
2019-03-12T15:34:43.725Z,20.83
2019-03-12T15:37:14.876Z,20.81
2019-03-12T15:39:45.352Z,20.97
2019-03-12T15:42:16.172Z,21.05
2019-03-12T15:44:46.352Z,20.92
2019-03-12T15:47:16.685Z,21.74
2019-03-12T15:49:47.056Z,21.74
2019-03-12T15:52:17.676Z,21.31
2019-03-12T15:54:47.591Z,20.99
2019-03-12T15:57:17.268Z,21.22
2019-03-12T15:59:47.463Z,22.11
2019-03-12T16:02:17.500Z,21.74
2019-03-12T16:04:47.852Z,21.74
2019-03-12T16:07:17.848Z,22.54
2019-03-12T16:09:47.723Z,22.54
2019-03-12T16:12:19.044Z,22.61
2019-03-12T16:14:49.502Z,22.85
2019-03-12T16:17:19.611Z,21.82
2019-03-12T16:19:49.111Z,21.82
2019-03-12T16:22:19.317Z,22.21
2019-03-12T16:24:49.516Z,22.82
2019-03-12T16:27:20.268Z,23.19
2019-03-12T16:29:50.537Z,23.27
2019-03-12T16:32:19.711Z,23.71
2019-03-12T16:34:51.940Z,23.48
2019-03-12T16:37:28.347Z,23.82
2019-03-12T16:39:58.640Z,24.39
2019-03-12T16:42:34.948Z,24.28
2019-03-12T16:45:01.016Z,24.90
2019-03-12T16:47:32.316Z,25.49
2019-03-12T16:50:02.599Z,25.32
2019-03-12T16:52:33.579Z,25.22
2019-03-12T16:55:03.491Z,25.18
2019-03-12T16:57:33.681Z,25.64
2019-03-12T17:00:08.207Z,25.64
2019-03-12T17:02:37.515Z,26.04
2019-03-12T17:05:07.040Z,26.26
2019-03-12T17:07:37.203Z,26.31
2019-03-12T17:10:09.802Z,26.73
2019-03-12T17:12:40.640Z,26.70
2019-03-12T17:15:11.928Z,26.86
2019-03-12T17:17:42.659Z,26.52
2019-03-12T17:20:13.317Z,26.87
2019-03-12T17:22:43.566Z,26.70
2019-03-12T17:25:14.558Z,26.99
2019-03-12T17:27:43.966Z,27.23
2019-03-12T17:30:17.740Z,27.64
2019-03-12T17:32:47.839Z,27.55
2019-03-12T17:35:23.357Z,27.99
2019-03-12T17:37:53.521Z,28.26
2019-03-12T17:40:25.532Z,28.52
2019-03-12T17:42:54.924Z,28.35
2019-03-12T17:45:25.013Z,28.22
2019-03-12T17:47:55.765Z,28.37
2019-03-12T17:50:25.878Z,28.56
2019-03-12T17:52:56.315Z,28.55
2019-03-12T17:55:27.165Z,28.08
2019-03-12T17:57:59.627Z,28.02
2019-03-12T18:00:30.981Z,28.24
2019-03-12T18:03:01.479Z,28.16
2019-03-12T18:05:31.326Z,28.07
2019-03-12T18:08:04.822Z,27.76
2019-03-12T18:10:34.600Z,27.76
2019-03-12T18:13:03.929Z,27.91
2019-03-12T18:15:33.866Z,28.53
2019-03-12T18:18:04.133Z,28.64
2019-03-12T18:20:34.542Z,28.76
2019-03-12T18:23:04.611Z,29.04
2019-03-12T18:25:33.880Z,29.04
2019-03-12T18:28:04.035Z,28.72
2019-03-12T18:30:34.362Z,28.40
2019-03-12T18:33:04.983Z,28.63
2019-03-12T18:35:35.632Z,28.30
2019-03-12T18:38:05.076Z,28.21
2019-03-12T18:40:35.165Z,28.74
2019-03-12T18:43:05.161Z,28.70
2019-03-12T18:45:35.535Z,28.72
2019-03-12T18:48:05.044Z,28.99
2019-03-12T18:50:35.189Z,28.64
2019-03-12T18:53:05.372Z,28.84
2019-03-12T18:56:09.548Z,28.92
2019-03-12T18:58:39.755Z,29.05
2019-03-12T19:01:15.381Z,28.70
2019-03-12T19:03:45.971Z,29.00
2019-03-12T19:06:15.880Z,29.16
2019-03-12T19:08:48.169Z,29.17
2019-03-12T19:11:19.072Z,29.30
2019-03-12T19:13:49.622Z,29.43
2019-03-12T19:16:18.889Z,29.16
2019-03-12T19:18:48.758Z,29.34
2019-03-12T19:21:18.931Z,29.26
2019-03-12T19:23:54.365Z,29.37
2019-03-12T19:26:24.862Z,29.29
2019-03-12T19:28:54.684Z,29.29
2019-03-12T19:31:41.962Z,30.03
2019-03-12T19:34:16.527Z,29.73
2019-03-12T19:36:46.557Z,29.67
2019-03-12T19:39:18.575Z,29.67
2019-03-12T19:41:47.776Z,29.59
2019-03-12T19:44:18.496Z,29.15
2019-03-12T19:46:49.233Z,29.61
2019-03-12T19:49:19.400Z,29.61
2019-03-12T19:51:51.543Z,29.86
2019-03-12T19:54:21.289Z,30.02
2019-03-12T19:56:51.713Z,29.83
2019-03-12T19:59:22.169Z,28.98
2019-03-12T20:01:59.401Z,29.71
2019-03-12T20:04:29.655Z,30.13
2019-03-12T20:07:00.018Z,30.13
2019-03-12T20:10:54.803Z,30.49
2019-03-12T20:14:37.940Z,30.93
2019-03-12T20:19:01.325Z,30.29
2019-03-12T20:22:41.626Z,29.20
2019-03-12T20:26:34.602Z,29.59
2019-03-12T20:30:03.519Z,27.92
2019-03-12T20:34:28.589Z,28.38
2019-03-12T20:38:03.072Z,28.38
2019-03-12T20:42:01.339Z,27.84
2019-03-12T20:45:53.506Z,28.04
2019-03-12T20:49:34.333Z,27.62
2019-03-12T20:53:22.487Z,27.62
2019-03-12T20:57:35.879Z,27.94
2019-03-12T21:01:39.091Z,27.94
2019-03-12T21:05:40.373Z,27.52
2019-03-12T21:09:40.747Z,28.47
2019-03-12T21:13:40.555Z,28.47
2019-03-12T21:17:28.514Z,28.30
2019-03-12T21:21:28.068Z,30.58
2019-03-12T21:24:53.549Z,30.58
2019-03-12T21:28:29.890Z,31.01
2019-03-12T21:30:59.561Z,32.34
2019-03-12T21:33:30.337Z,33.86
2019-03-12T21:36:02.566Z,33.86
2019-03-12T21:38:34.097Z,33.08
2019-03-12T21:41:05.049Z,34.19
2019-03-12T21:43:35.517Z,34.42
2019-03-12T21:46:07.963Z,34.33
2019-03-12T21:48:39.616Z,34.33
2019-03-12T21:51:10.781Z,33.73
2019-03-12T21:53:41.804Z,32.69
2019-03-12T21:56:12.840Z,32.31
2019-03-12T21:58:43.601Z,32.28
2019-03-12T22:01:17.691Z,31.66
2019-03-12T22:03:48.084Z,32.81
2019-03-12T22:06:20.582Z,32.90
2019-03-12T22:08:49.873Z,33.29
2019-03-12T22:11:20.088Z,33.36
2019-03-12T22:13:50.325Z,33.64
2019-03-12T22:16:20.476Z,33.63
2019-03-12T22:18:50.530Z,33.13
2019-03-12T22:21:25.678Z,33.13
2019-03-12T22:23:58.034Z,34.21
2019-03-12T22:26:28.620Z,34.77
2019-03-12T22:28:57.719Z,34.68
2019-03-12T22:31:28.321Z,35.30
2019-03-12T22:33:58.739Z,36.25
2019-03-12T22:36:28.668Z,36.25
2019-03-12T22:38:59.346Z,34.92
2019-03-12T22:41:29.550Z,34.59
2019-03-12T22:43:58.673Z,34.74
2019-03-12T22:46:28.476Z,35.07
2019-03-12T22:48:58.594Z,33.34
2019-03-12T22:51:27.874Z,33.34
2019-03-12T22:53:57.684Z,32.98
2019-03-12T22:56:27.809Z,33.54
2019-03-12T22:58:58.171Z,33.03
2019-03-12T23:01:47.324Z,32.53
2019-03-12T23:04:36.121Z,32.74
2019-03-12T23:07:24.825Z,32.98
2019-03-12T23:09:55.649Z,33.46
2019-03-12T23:12:27.803Z,34.10
2019-03-12T23:14:58.863Z,34.10
2019-03-12T23:17:30.481Z,34.73
2019-03-12T23:20:00.666Z,36.54
2019-03-12T23:22:31.149Z,36.54
2019-03-12T23:25:02.144Z,36.25
2019-03-12T23:27:34.325Z,36.23
2019-03-12T23:30:06.640Z,35.99
2019-03-12T23:32:38.497Z,35.64
2019-03-12T23:35:08.879Z,35.69
2019-03-12T23:37:38.891Z,35.69
2019-03-12T23:40:09.678Z,35.80
2019-03-12T23:42:39.582Z,34.99
2019-03-12T23:45:08.852Z,33.52
2019-03-12T23:47:38.814Z,33.65
2019-03-12T23:50:09.622Z,34.78
2019-03-12T23:52:39.522Z,36.83
2019-03-12T23:55:09.684Z,39.79
2019-03-12T23:57:39.353Z,39.79
